Terminal Aerodrome Forecast
Issued by NWS

Home | Current Version | Previous Version | Text Only | Print | Product List | Glossary On
Versions: 1 2 3 4 5 6 7 8 9 10 11 12 13
111
FTUS42 KTBW 311735
TAFPIE
TAF
KPIE 311735Z 3118/0118 04006KT P6SM VCTS FEW025CB SCT060
     FM312000 31007KT P6SM SCT030 BKN060
     FM010200 05005KT P6SM FEW030 SCT060
     FM011700 05004KT P6SM SCT030 SCT250=

USA.gov is the U.S. government's official web portal to all federal, state and local government web resources and services.